createdAt,value
2018-10-09T11:31:42.638Z,1251
2018-10-09T11:49:54.414Z,1252
2018-10-09T11:52:18.735Z,1253
2018-10-09T11:54:22.330Z,1253
2018-10-09T11:55:19.327Z,1254
2018-10-09T11:55:37.077Z,1254
2018-10-09T11:55:52.980Z,1254
2018-10-09T13:07:15.127Z,1255
2018-10-09T13:18:58.637Z,1256
2018-10-09T13:27:16.574Z,1256
2018-10-09T13:35:27.747Z,1256
2018-10-09T13:35:57.659Z,1256
2018-10-09T13:36:27.697Z,1256
2018-10-09T13:36:57.694Z,1256
2018-10-09T13:37:27.619Z,1256
2018-10-09T13:37:57.654Z,1256
2018-10-09T13:38:27.645Z,1256
2018-10-09T13:38:58.468Z,1256
2018-10-09T13:39:35.516Z,1256
2018-10-09T13:39:58.241Z,1256
2018-10-09T13:40:27.947Z,1256
2018-10-09T13:40:57.672Z,1256
2018-10-09T13:41:28.756Z,1256
2018-10-09T13:41:57.932Z,1256
2018-10-09T13:42:27.981Z,1256
2018-10-09T13:42:59.880Z,1256
2018-10-09T13:43:28.090Z,1256
2018-10-09T13:43:59.133Z,1256
2018-10-09T13:44:34.611Z,1256
2018-10-09T13:45:01.453Z,1255
2018-10-09T13:45:37.115Z,1256
2018-10-09T13:45:59.179Z,1256
2018-10-09T13:46:32.795Z,1256
2018-10-09T13:47:02.850Z,1256
2018-10-09T13:47:29.237Z,1256
2018-10-09T13:49:08.639Z,1256
2018-10-09T13:49:34.284Z,1256
2018-10-09T13:49:58.401Z,1255
2018-10-09T13:50:35.896Z,1255
2018-10-09T13:50:57.832Z,1256
2018-10-09T13:51:27.814Z,1256
2018-10-09T13:51:57.787Z,1256
2018-10-09T13:52:33.162Z,1256
2018-10-09T13:54:20.618Z,1256
2018-10-09T13:54:49.201Z,1256
2018-10-09T13:55:19.008Z,1256
2018-10-09T13:55:49.349Z,1256
2018-10-09T13:56:19.192Z,1256
2018-10-09T13:56:48.910Z,1255
2018-10-09T13:57:19.158Z,1255
2018-10-09T13:57:48.980Z,1255
2018-10-09T13:58:19.028Z,1255
2018-10-09T13:58:49.246Z,1255
2018-10-09T13:59:19.169Z,1255
2018-10-09T13:59:49.943Z,1254
2018-10-09T14:00:19.246Z,1254
2018-10-09T14:00:49.813Z,1255
2018-10-09T14:01:20.262Z,1255
2018-10-09T14:01:49.127Z,1255
2018-10-09T14:02:19.231Z,1255
2018-10-09T14:02:49.079Z,1255
2018-10-09T14:03:18.912Z,1255
2018-10-09T14:03:49.046Z,1255
2018-10-09T14:04:19.353Z,1255
2018-10-09T14:04:48.974Z,1255
2018-10-09T14:05:19.292Z,1255
2018-10-09T14:05:49.147Z,1255
2018-10-09T14:06:19.515Z,1255
2018-10-09T14:06:49.095Z,1255
2018-10-09T14:07:19.144Z,1255
2018-10-09T14:07:49.107Z,1255
2018-10-09T14:08:19.800Z,1255
2018-10-09T14:08:48.996Z,1255
2018-10-09T14:09:19.127Z,1255
2018-10-09T14:09:50.499Z,1255
2018-10-09T14:10:19.364Z,1255
2018-10-09T14:10:48.982Z,1255
2018-10-09T14:11:19.285Z,1255
2018-10-09T14:11:49.176Z,1255
2018-10-09T14:12:20.088Z,1255
2018-10-09T14:12:49.113Z,1255
2018-10-09T14:13:18.961Z,1255
2018-10-09T14:13:48.994Z,1255
2018-10-09T14:14:18.957Z,1255
2018-10-09T14:14:49.032Z,1255
2018-10-09T14:15:19.065Z,1255
2018-10-09T14:15:49.003Z,1255
2018-10-09T14:16:19.136Z,1255
2018-10-09T14:16:49.017Z,1255
2018-10-09T14:17:18.934Z,1255
2018-10-09T14:17:49.050Z,1255
2018-10-09T14:18:19.058Z,1255
2018-10-09T14:18:49.018Z,1255
2018-10-09T14:19:19.062Z,1255
2018-10-09T14:19:49.039Z,1255
2018-10-09T14:20:18.985Z,1255
2018-10-09T14:20:49.017Z,1255
2018-10-09T14:21:18.921Z,1255
2018-10-09T14:21:48.930Z,1255
2018-10-09T14:22:19.062Z,1255
2018-10-09T14:22:49.083Z,1255
2018-10-09T14:23:18.916Z,1254
2018-10-09T14:23:49.241Z,1254
2018-10-09T14:24:19.057Z,1254
2018-10-09T14:24:49.021Z,1254
2018-10-09T14:25:18.968Z,1254
2018-10-09T14:25:49.004Z,1254
2018-10-09T14:26:20.480Z,1254
2018-10-09T14:26:49.000Z,1254
2018-10-09T14:27:18.934Z,1254
2018-10-09T14:27:49.080Z,1254
2018-10-09T14:28:19.256Z,1254
2018-10-09T14:28:48.963Z,1254
2018-10-09T14:29:19.062Z,1254
2018-10-09T14:29:48.917Z,1254
2018-10-09T14:30:18.974Z,1254
2018-10-09T14:30:48.995Z,1254
2018-10-09T14:31:18.942Z,1254
2018-10-09T14:31:48.939Z,1254
2018-10-09T14:32:18.920Z,1254
2018-10-09T14:32:49.007Z,1254
2018-10-09T14:33:18.946Z,1254
2018-10-09T14:33:48.918Z,1254
2018-10-09T14:34:18.913Z,1254
2018-10-09T14:34:48.924Z,1254
2018-10-09T14:35:18.968Z,1254
2018-10-09T14:35:48.920Z,1254
2018-10-09T14:36:19.033Z,1254
2018-10-09T14:36:48.945Z,1254
2018-10-09T14:37:18.961Z,1254
2018-10-09T14:37:48.935Z,1254
2018-10-09T14:38:19.050Z,1254
2018-10-09T14:38:48.984Z,1254
2018-10-09T14:39:18.948Z,1254
2018-10-09T14:39:48.946Z,1254
2018-10-09T14:40:18.949Z,1254
2018-10-09T14:40:48.962Z,1254
2018-10-09T14:41:18.938Z,1254
2018-10-09T14:41:48.995Z,1254
2018-10-09T14:42:19.038Z,1254
2018-10-09T14:42:48.933Z,1254
2018-10-09T14:43:19.147Z,1254
2018-10-09T14:43:48.934Z,1254
2018-10-09T14:44:19.030Z,1254
2018-10-09T14:44:48.963Z,1254
2018-10-09T14:45:18.949Z,1254
2018-10-09T14:45:48.932Z,1254
2018-10-09T14:46:18.960Z,1254
2018-10-09T14:46:49.034Z,1254
2018-10-09T14:47:18.914Z,1254
2018-10-09T14:47:48.948Z,1254
2018-10-09T14:48:18.940Z,1254
2018-10-09T14:48:48.976Z,1254
2018-10-09T14:49:18.910Z,1254
2018-10-09T14:49:48.943Z,1254
2018-10-09T14:50:18.920Z,1254
2018-10-09T14:50:48.925Z,1254
2018-10-09T14:51:18.920Z,1254
2018-10-09T14:51:49.062Z,1254
2018-10-09T14:52:18.918Z,1254
2018-10-09T14:52:49.066Z,1254
2018-10-09T14:53:18.945Z,1254
2018-10-09T14:53:48.958Z,1254
2018-10-09T14:54:18.939Z,1254
2018-10-09T14:54:49.057Z,1254
2018-10-09T14:55:19.151Z,1254
2018-10-09T14:55:48.992Z,1254
2018-10-09T14:56:19.079Z,1255
2018-10-09T14:56:49.030Z,1255
2018-10-09T14:57:18.961Z,1255
2018-10-09T14:57:49.075Z,1255
2018-10-09T14:58:18.975Z,1255
2018-10-09T14:58:49.194Z,1255
2018-10-09T14:59:19.135Z,1255
2018-10-09T14:59:49.449Z,1255
2018-10-09T15:00:19.053Z,1255
2018-10-09T15:00:49.234Z,1255
2018-10-09T15:01:19.324Z,1255
2018-10-09T15:01:49.057Z,1255
2018-10-09T15:02:19.116Z,1255
2018-10-09T15:02:49.212Z,1255
2018-10-09T15:03:19.109Z,1255
2018-10-09T15:03:49.288Z,1255
2018-10-09T15:04:18.999Z,1255
2018-10-09T15:04:49.087Z,1255
2018-10-09T15:05:19.292Z,1255
2018-10-09T15:05:49.279Z,1255
2018-10-09T15:06:19.413Z,1255
2018-10-09T15:06:49.140Z,1255
2018-10-09T15:07:19.204Z,1255
2018-10-09T15:07:49.039Z,1255
2018-10-09T15:08:18.930Z,1255
2018-10-09T15:08:48.994Z,1255
2018-10-09T15:09:18.928Z,1255
2018-10-09T15:09:48.936Z,1255
2018-10-09T15:10:19.107Z,1255
2018-10-09T15:10:49.089Z,1255
2018-10-09T15:11:19.958Z,1255
2018-10-09T15:11:49.003Z,1255
2018-10-09T15:12:18.980Z,1255
2018-10-09T15:12:49.177Z,1255
2018-10-09T15:13:20.529Z,1255
2018-10-09T15:13:50.148Z,1255
2018-10-09T15:14:18.919Z,1255
2018-10-09T15:14:49.056Z,1255
2018-10-09T15:15:19.081Z,1255
2018-10-09T15:15:49.136Z,1255
2018-10-09T15:16:19.005Z,1255
2018-10-09T15:16:49.463Z,1255
2018-10-09T15:17:20.022Z,1255
2018-10-09T15:17:49.265Z,1255
2018-10-09T15:18:20.143Z,1255
2018-10-09T15:18:49.147Z,1255
2018-10-09T15:19:23.161Z,1255
2018-10-09T15:19:49.083Z,1255
2018-10-09T15:20:19.085Z,1255
2018-10-09T15:20:50.375Z,1255
2018-10-09T15:21:21.384Z,1255
2018-10-09T15:21:49.142Z,1255
2018-10-09T15:22:19.345Z,1255
2018-10-09T15:22:49.386Z,1255
2018-10-09T15:23:19.240Z,1255
2018-10-09T15:23:49.084Z,1255
2018-10-09T15:24:21.572Z,1255
2018-10-09T15:24:49.406Z,1255
2018-10-09T15:25:19.200Z,1255
2018-10-09T15:25:50.621Z,1255
2018-10-09T15:26:19.121Z,1255
2018-10-09T15:26:49.196Z,1255
2018-10-09T15:27:19.161Z,1255
2018-10-09T15:27:50.467Z,1255
2018-10-09T15:28:19.167Z,1255
2018-10-09T15:28:48.996Z,1255
2018-10-09T15:29:19.050Z,1255
2018-10-09T15:29:48.987Z,1255
2018-10-09T15:30:18.971Z,1255
2018-10-09T15:30:49.019Z,1255
2018-10-09T15:31:18.942Z,1255
2018-10-09T15:31:49.074Z,1255
2018-10-09T15:32:19.143Z,1255
2018-10-09T15:32:49.043Z,1255
2018-10-09T15:33:18.928Z,1255
2018-10-09T15:33:49.015Z,1255
2018-10-09T15:34:18.919Z,1255
2018-10-09T15:34:48.939Z,1255
2018-10-09T15:35:19.092Z,1255
2018-10-09T15:35:49.845Z,1255
2018-10-09T15:36:19.176Z,1255
2018-10-09T15:36:49.274Z,1255
2018-10-09T15:37:19.312Z,1255
2018-10-09T15:37:49.065Z,1255
2018-10-09T15:38:19.037Z,1255
2018-10-09T15:38:48.959Z,1256
2018-10-09T15:39:18.978Z,1256
2018-10-09T15:39:49.234Z,1256
2018-10-09T15:40:18.999Z,1257
2018-10-09T15:40:48.981Z,1257
2018-10-09T15:41:18.998Z,1257
2018-10-09T15:41:49.073Z,1257
2018-10-09T15:42:19.233Z,1257
2018-10-09T15:42:48.981Z,1257
2018-10-09T15:43:18.978Z,1257
2018-10-09T15:43:48.942Z,1257
2018-10-09T15:44:19.262Z,1257
2018-10-09T15:44:49.063Z,1257
2018-10-09T15:45:18.972Z,1257
2018-10-09T15:45:49.028Z,1257
2018-10-09T15:46:19.182Z,1257
2018-10-09T15:46:49.040Z,1257
2018-10-09T15:47:19.040Z,1257
2018-10-09T15:47:48.941Z,1257
2018-10-09T15:48:18.996Z,1257
2018-10-09T15:48:49.009Z,1257
2018-10-09T15:49:19.280Z,1257
2018-10-09T15:49:49.563Z,1257
2018-10-09T15:50:18.998Z,1256
2018-10-09T15:50:50.901Z,1256
2018-10-09T15:51:19.144Z,1256
2018-10-09T15:51:49.702Z,1256
2018-10-09T15:52:19.127Z,1256
2018-10-09T15:52:48.977Z,1256
2018-10-09T15:53:19.019Z,1256
2018-10-09T15:53:48.956Z,1256
2018-10-09T15:54:18.969Z,1256
2018-10-09T15:54:48.984Z,1256
2018-10-09T15:55:19.251Z,1256
2018-10-09T15:55:49.085Z,1256
2018-10-09T15:56:19.240Z,1256
2018-10-09T15:56:49.000Z,1256
2018-10-09T15:57:19.110Z,1257
2018-10-09T15:57:49.068Z,1257
2018-10-09T15:58:18.974Z,1257
2018-10-09T15:58:48.969Z,1257
2018-10-09T15:59:19.041Z,1257
2018-10-09T15:59:49.223Z,1258
2018-10-09T16:00:18.992Z,1258
2018-10-09T16:00:49.140Z,1258
2018-10-09T16:01:20.084Z,1258
2018-10-09T16:01:49.143Z,1258
2018-10-09T16:02:19.043Z,1258
2018-10-09T16:02:49.036Z,1258
2018-10-09T16:03:18.954Z,1258
2018-10-09T16:03:48.943Z,1258
2018-10-09T16:04:18.912Z,1258
2018-10-09T16:04:49.050Z,1258
2018-10-09T16:05:19.002Z,1258
2018-10-09T16:05:49.007Z,1258
2018-10-09T16:06:19.044Z,1258
2018-10-09T16:06:49.092Z,1258
2018-10-09T16:07:19.182Z,1258
2018-10-09T16:07:49.162Z,1258
2018-10-09T16:08:19.262Z,1258
2018-10-09T16:08:48.950Z,1258
2018-10-09T16:09:19.118Z,1258
2018-10-09T16:09:49.043Z,1258
2018-10-09T16:10:19.097Z,1258
2018-10-09T16:10:48.981Z,1258
2018-10-09T16:11:18.976Z,1258
2018-10-09T16:11:49.221Z,1258
2018-10-09T16:12:18.916Z,1258
2018-10-09T16:12:49.079Z,1258
2018-10-09T16:13:19.056Z,1258
2018-10-09T16:13:49.039Z,1258
2018-10-09T16:14:19.092Z,1258
2018-10-09T16:14:48.945Z,1258
2018-10-09T16:15:18.953Z,1258
2018-10-09T16:15:49.175Z,1258
2018-10-09T16:16:19.183Z,1258
2018-10-09T16:16:49.272Z,1258
2018-10-09T16:17:18.919Z,1258
2018-10-09T16:17:49.048Z,1258
2018-10-09T16:18:19.050Z,1258
2018-10-09T16:18:49.243Z,1258
2018-10-09T16:19:19.172Z,1258
2018-10-09T16:19:48.963Z,1258
2018-10-09T16:20:18.992Z,1258
2018-10-09T16:20:49.192Z,1258
2018-10-09T16:21:18.939Z,1258
2018-10-09T16:21:49.022Z,1258
2018-10-09T16:22:19.310Z,1258
2018-10-09T16:22:49.425Z,1258
2018-10-09T16:23:19.244Z,1258
2018-10-09T16:23:49.293Z,1258
2018-10-09T16:24:19.378Z,1258
2018-10-09T16:24:49.600Z,1258
2018-10-09T16:25:19.384Z,1258
2018-10-09T16:25:50.311Z,1258
2018-10-09T16:26:19.018Z,1258
2018-10-09T16:26:49.087Z,1258
2018-10-09T16:27:19.021Z,1258
2018-10-09T16:27:48.988Z,1258
2018-10-09T16:28:19.045Z,1258
2018-10-09T16:28:50.059Z,1258
2018-10-09T16:29:20.773Z,1258
2018-10-09T16:29:49.466Z,1258
2018-10-09T16:30:20.803Z,1258
2018-10-09T16:30:48.998Z,1258
2018-10-09T16:31:19.247Z,1258
2018-10-09T16:31:49.118Z,1258
2018-10-09T16:32:19.038Z,1258
2018-10-09T16:32:50.208Z,1258
2018-10-09T16:33:20.120Z,1258
2018-10-09T16:33:48.942Z,1258
2018-10-09T16:34:19.025Z,1258
2018-10-09T16:34:48.986Z,1258
2018-10-09T16:35:19.101Z,1258
2018-10-09T16:35:49.165Z,1258
2018-10-09T16:36:19.031Z,1258
2018-10-09T16:36:48.953Z,1258
2018-10-09T16:37:18.928Z,1258
2018-10-09T16:37:49.011Z,1258
2018-10-09T16:38:18.920Z,1258
2018-10-09T16:38:49.128Z,1258
2018-10-09T16:39:18.962Z,1258
2018-10-09T16:39:49.082Z,1258
2018-10-09T16:40:19.388Z,1258
2018-10-09T16:40:48.965Z,1258
2018-10-09T16:41:19.292Z,1258
2018-10-09T16:41:49.116Z,1258
2018-10-09T16:42:19.007Z,1258
2018-10-09T16:42:49.253Z,1258
2018-10-09T16:43:19.036Z,1258
2018-10-09T16:43:49.065Z,1258
2018-10-09T16:44:19.323Z,1258
2018-10-09T16:44:49.191Z,1258
2018-10-09T16:45:20.316Z,1258
2018-10-09T16:45:49.268Z,1258
2018-10-09T16:46:19.092Z,1258
2018-10-09T16:46:48.926Z,1258
2018-10-09T16:47:19.035Z,1258
2018-10-09T16:47:49.383Z,1258
2018-10-09T16:48:19.089Z,1258
2018-10-09T16:48:48.954Z,1258
2018-10-09T16:49:19.160Z,1258
2018-10-09T16:49:48.987Z,1258
2018-10-09T16:50:19.193Z,1258
2018-10-09T16:50:48.998Z,1258
2018-10-09T16:51:19.288Z,1258
2018-10-09T16:51:49.003Z,1258
2018-10-09T16:52:19.012Z,1258
2018-10-09T16:52:48.922Z,1258
2018-10-09T16:53:19.068Z,1258
2018-10-09T16:53:48.949Z,1258
2018-10-09T16:54:19.299Z,1258
2018-10-09T16:54:49.005Z,1258
2018-10-09T16:55:18.898Z,1258
2018-10-09T16:55:49.060Z,1258
2018-10-09T16:56:19.040Z,1258
2018-10-09T16:56:49.044Z,1258
2018-10-09T16:57:18.947Z,1259
2018-10-09T16:57:49.038Z,1259
2018-10-09T16:58:19.089Z,1259
2018-10-09T16:58:48.975Z,1259
2018-10-09T16:59:19.140Z,1259
2018-10-09T16:59:49.341Z,1259
2018-10-09T17:00:19.422Z,1259
2018-10-09T17:00:49.042Z,1259
2018-10-09T17:01:19.079Z,1259
2018-10-09T17:01:48.989Z,1259
2018-10-09T17:02:19.001Z,1259
2018-10-09T17:02:48.930Z,1259
2018-10-09T17:03:18.976Z,1259
2018-10-09T17:03:49.437Z,1259
2018-10-09T17:04:19.274Z,1259
2018-10-09T17:04:49.078Z,1259
2018-10-09T17:05:19.190Z,1259
2018-10-09T17:05:49.395Z,1259
2018-10-09T17:06:19.668Z,1259
2018-10-09T17:06:49.390Z,1259
2018-10-09T17:07:19.368Z,1259
2018-10-09T17:07:49.290Z,1259
2018-10-09T17:08:19.073Z,1259
2018-10-09T17:08:49.239Z,1259
2018-10-09T17:09:19.091Z,1259
2018-10-09T17:09:49.357Z,1259
2018-10-09T17:10:19.747Z,1259
2018-10-09T17:10:48.930Z,1259
2018-10-09T17:11:19.287Z,1259
2018-10-09T17:11:49.066Z,1259
2018-10-09T17:12:18.904Z,1259
2018-10-09T17:12:49.064Z,1259
2018-10-09T17:13:21.757Z,1259
2018-10-09T17:13:48.951Z,1259
2018-10-09T17:14:19.197Z,1259
2018-10-09T17:14:48.983Z,1259
2018-10-09T17:15:19.036Z,1259
2018-10-09T17:15:50.724Z,1259
2018-10-09T17:16:19.254Z,1259
2018-10-09T17:16:49.120Z,1259
2018-10-09T17:17:19.007Z,1259
2018-10-09T17:17:49.330Z,1259
2018-10-09T17:18:19.163Z,1259
2018-10-09T17:18:49.033Z,1259
2018-10-09T17:19:19.475Z,1259
2018-10-09T17:19:49.536Z,1259
2018-10-09T17:20:18.975Z,1259
2018-10-09T17:20:49.376Z,1259
2018-10-09T17:21:19.356Z,1259
2018-10-09T17:21:49.225Z,1259
2018-10-09T17:22:20.470Z,1259
2018-10-09T17:22:50.225Z,1259
2018-10-09T17:23:19.256Z,1259
2018-10-09T17:23:48.913Z,1259
2018-10-09T17:24:19.257Z,1259
2018-10-09T17:24:49.250Z,1259
2018-10-09T17:25:18.925Z,1259
2018-10-09T17:25:49.188Z,1259
2018-10-09T17:26:19.345Z,1259
2018-10-09T17:26:49.250Z,1259
2018-10-09T17:27:19.239Z,1259
2018-10-09T17:27:49.448Z,1259
2018-10-09T17:28:19.480Z,1259
2018-10-09T17:28:49.126Z,1259
2018-10-09T17:29:20.036Z,1259
2018-10-09T17:29:50.381Z,1259
2018-10-09T17:30:18.991Z,1259
2018-10-09T17:30:49.279Z,1259
2018-10-09T17:31:19.396Z,1259
2018-10-09T17:31:49.182Z,1259
2018-10-09T17:32:20.286Z,1259
2018-10-09T17:32:53.096Z,1259
2018-10-09T17:33:19.161Z,1259
2018-10-09T17:33:48.983Z,1259
2018-10-09T17:34:19.557Z,1259
2018-10-09T17:34:49.054Z,1259
2018-10-09T17:35:19.291Z,1259
2018-10-09T17:35:49.287Z,1259
2018-10-09T17:36:19.250Z,1259
2018-10-09T17:37:19.741Z,1259
2018-10-09T17:37:49.275Z,1259
2018-10-09T17:38:18.981Z,1259
2018-10-09T17:38:49.148Z,1259
2018-10-09T17:39:19.418Z,1259
2018-10-09T17:39:49.251Z,1259
2018-10-09T17:40:19.197Z,1259
2018-10-09T17:40:49.186Z,1259
2018-10-09T17:41:19.307Z,1259
2018-10-09T17:41:49.232Z,1259
2018-10-09T17:42:19.162Z,1259
2018-10-09T17:42:49.163Z,1259
2018-10-09T17:43:19.127Z,1259
2018-10-09T17:43:48.973Z,1259
2018-10-09T17:44:20.316Z,1259
2018-10-09T17:44:49.392Z,1260
2018-10-09T17:45:19.097Z,1260
2018-10-09T17:45:49.029Z,1260
2018-10-09T17:46:19.015Z,1260
2018-10-09T17:46:49.089Z,1260
2018-10-09T17:47:18.933Z,1260
2018-10-09T17:47:49.022Z,1260
2018-10-09T17:48:18.956Z,1260
2018-10-09T17:48:49.320Z,1260
2018-10-09T17:49:19.004Z,1260
2018-10-09T17:49:48.949Z,1260
2018-10-09T17:50:19.096Z,1260
2018-10-09T17:50:48.996Z,1260
2018-10-09T17:51:19.191Z,1260
2018-10-09T17:51:49.168Z,1260
2018-10-09T17:52:19.058Z,1260
2018-10-09T17:52:49.011Z,1260
2018-10-09T17:53:18.951Z,1260
2018-10-09T17:53:49.965Z,1260
2018-10-09T17:54:19.003Z,1260
2018-10-09T17:54:48.997Z,1260
2018-10-09T17:55:19.100Z,1260
2018-10-09T17:55:48.974Z,1260
2018-10-09T17:56:19.012Z,1260
2018-10-09T17:56:49.363Z,1260
2018-10-09T17:57:19.139Z,1260
2018-10-09T17:57:49.693Z,1260
2018-10-09T17:58:18.960Z,1260
2018-10-09T17:58:49.457Z,1260
2018-10-09T17:59:19.348Z,1260
2018-10-09T17:59:49.180Z,1260
2018-10-09T18:00:19.243Z,1260
2018-10-09T18:00:49.175Z,1260
2018-10-09T18:01:19.268Z,1260
2018-10-09T18:01:50.286Z,1260
2018-10-09T18:02:20.454Z,1260
2018-10-09T18:02:49.202Z,1260
2018-10-09T18:03:19.226Z,1260
2018-10-09T18:03:49.085Z,1260
2018-10-09T18:04:19.526Z,1260
2018-10-09T18:04:49.144Z,1260
2018-10-09T18:05:19.074Z,1260
2018-10-09T18:05:49.253Z,1260
2018-10-09T18:06:18.990Z,1260
2018-10-09T18:06:49.229Z,1260
2018-10-09T18:07:19.029Z,1260
2018-10-09T18:07:50.320Z,1260
2018-10-09T18:08:19.130Z,1260
2018-10-09T18:08:50.295Z,1260
2018-10-09T18:09:19.009Z,1260
2018-10-09T18:09:49.121Z,1260
2018-10-09T18:10:20.060Z,1260
2018-10-09T18:10:49.127Z,1260
2018-10-09T18:11:19.013Z,1260
2018-10-09T18:11:49.366Z,1260
2018-10-09T18:12:19.331Z,1260
2018-10-09T18:12:48.996Z,1260
2018-10-09T18:13:20.401Z,1260
2018-10-09T18:13:48.951Z,1260
2018-10-09T18:14:19.008Z,1260
2018-10-09T18:14:49.414Z,1260
2018-10-09T18:15:19.018Z,1260
2018-10-09T18:15:49.072Z,1260
2018-10-09T18:16:19.020Z,1260
2018-10-09T18:16:49.069Z,1260
2018-10-09T18:17:19.154Z,1260
2018-10-09T18:17:49.072Z,1260
2018-10-09T18:18:18.993Z,1260
2018-10-09T18:18:50.570Z,1260
2018-10-09T18:19:18.981Z,1260
2018-10-09T18:19:49.134Z,1260
2018-10-09T18:20:19.230Z,1260
2018-10-09T18:20:49.309Z,1260
2018-10-09T18:21:19.010Z,1260
2018-10-09T18:21:49.180Z,1260
2018-10-09T18:22:18.988Z,1260
2018-10-09T18:22:48.990Z,1260
2018-10-09T18:23:18.945Z,1260
2018-10-09T18:23:48.933Z,1260
2018-10-09T18:24:19.067Z,1260
2018-10-09T18:24:49.992Z,1260
2018-10-09T18:25:18.998Z,1260
2018-10-09T18:25:48.947Z,1260
2018-10-09T18:26:19.023Z,1260
2018-10-09T18:26:49.088Z,1260
2018-10-09T18:27:19.000Z,1260
2018-10-09T18:27:49.109Z,1260
2018-10-09T18:28:19.061Z,1260
2018-10-09T18:28:48.929Z,1260
2018-10-09T18:29:19.154Z,1260
2018-10-09T18:29:49.487Z,1260
2018-10-09T18:30:19.039Z,1260
2018-10-09T18:30:49.349Z,1260
2018-10-09T18:31:18.949Z,1260
2018-10-09T18:31:48.946Z,1260
2018-10-09T18:32:19.021Z,1260
2018-10-09T18:32:49.309Z,1260
2018-10-09T18:33:19.643Z,1260
2018-10-09T18:33:49.325Z,1260
2018-10-09T18:34:19.275Z,1260
2018-10-09T18:34:49.396Z,1260
2018-10-09T18:35:18.972Z,1260
2018-10-09T18:35:48.970Z,1260
2018-10-09T18:36:19.064Z,1260
2018-10-09T18:36:49.250Z,1260
2018-10-09T18:37:19.826Z,1260
2018-10-09T18:37:49.282Z,1260
2018-10-09T18:38:19.337Z,1260
2018-10-09T18:38:48.957Z,1260
2018-10-09T18:39:19.232Z,1260
2018-10-09T18:39:49.214Z,1260
2018-10-09T18:40:18.957Z,1260
2018-10-09T18:40:49.108Z,1260
2018-10-09T18:41:19.157Z,1260
2018-10-09T18:41:49.303Z,1260
2018-10-09T18:42:19.062Z,1260
2018-10-09T18:42:49.065Z,1260
2018-10-09T18:43:18.944Z,1260
2018-10-09T18:43:48.937Z,1260
2018-10-09T18:44:19.056Z,1260
2018-10-09T18:44:48.981Z,1260
2018-10-09T18:45:19.187Z,1260
2018-10-09T18:45:49.224Z,1260
2018-10-09T18:46:18.946Z,1260
2018-10-09T18:46:48.957Z,1260
2018-10-09T18:47:18.951Z,1260
2018-10-09T18:47:48.966Z,1260
2018-10-09T18:48:18.959Z,1260
2018-10-09T18:48:49.061Z,1260
2018-10-09T18:49:18.938Z,1260
2018-10-09T18:49:49.031Z,1260
2018-10-09T18:50:18.921Z,1260
2018-10-09T18:51:18.951Z,1260
2018-10-09T18:51:48.935Z,1260
2018-10-09T18:53:18.972Z,1260
2018-10-09T18:53:48.936Z,1260
2018-10-09T18:54:18.986Z,1260
2018-10-09T18:54:49.386Z,1260
2018-10-09T18:55:21.094Z,1260
2018-10-09T18:55:48.929Z,1260
2018-10-09T18:56:19.079Z,1260
2018-10-09T18:56:49.274Z,1260
2018-10-09T18:57:18.964Z,1260
2018-10-09T18:57:49.194Z,1260
2018-10-09T18:58:19.172Z,1260
2018-10-09T18:58:49.055Z,1260
2018-10-09T18:59:18.976Z,1260
2018-10-09T18:59:48.944Z,1260
2018-10-09T19:00:19.011Z,1260
2018-10-09T19:00:49.306Z,1260
2018-10-09T19:01:18.974Z,1260
2018-10-09T19:01:49.022Z,1260
2018-10-09T19:02:18.969Z,1260
2018-10-09T19:02:48.921Z,1260
2018-10-09T19:03:19.190Z,1260
2018-10-09T19:03:49.030Z,1260
2018-10-09T19:04:18.967Z,1260
2018-10-09T19:04:49.024Z,1260
2018-10-09T19:05:18.962Z,1260
2018-10-09T19:05:48.920Z,1260
2018-10-09T19:06:19.137Z,1260
2018-10-09T19:06:48.954Z,1260
2018-10-09T19:07:19.090Z,1260
2018-10-09T19:07:49.739Z,1260
2018-10-09T19:08:19.180Z,1260
2018-10-09T19:08:49.095Z,1260
2018-10-09T19:09:20.881Z,1260
2018-10-09T19:09:49.079Z,1260
2018-10-09T19:10:19.332Z,1260
2018-10-09T19:10:49.205Z,1260
2018-10-09T19:11:18.965Z,1260
2018-10-09T19:11:49.110Z,1260
2018-10-09T19:12:19.213Z,1260
2018-10-09T19:12:49.600Z,1260
2018-10-09T19:13:21.863Z,1260
2018-10-09T19:13:49.295Z,1260
2018-10-09T19:14:23.751Z,1260
2018-10-09T19:14:49.579Z,1260
2018-10-09T19:15:19.041Z,1260
2018-10-09T19:15:49.217Z,1260
2018-10-09T19:16:21.033Z,1260
2018-10-09T19:16:49.476Z,1260
2018-10-09T19:17:19.359Z,1260
2018-10-09T19:17:49.390Z,1260
2018-10-09T19:18:19.637Z,1260
2018-10-09T19:18:49.227Z,1260
2018-10-09T19:19:23.178Z,1260
2018-10-09T19:19:50.332Z,1260
2018-10-09T19:20:19.714Z,1260
2018-10-09T19:20:49.330Z,1260
2018-10-09T19:21:20.340Z,1260
2018-10-09T19:21:49.316Z,1260
2018-10-09T19:22:19.152Z,1260
2018-10-09T19:22:49.166Z,1260
2018-10-09T19:23:19.439Z,1260
2018-10-09T19:23:49.252Z,1260
2018-10-09T19:24:19.409Z,1260
2018-10-09T19:24:49.371Z,1260
2018-10-09T19:25:19.252Z,1260
2018-10-09T19:25:49.068Z,1260
2018-10-09T19:26:19.059Z,1260
2018-10-09T19:26:49.315Z,1260
2018-10-09T19:27:19.042Z,1260
2018-10-09T19:27:49.256Z,1260
2018-10-09T19:28:19.161Z,1260
2018-10-09T19:28:48.953Z,1260
2018-10-09T19:29:19.318Z,1260
2018-10-09T19:29:48.992Z,1260
2018-10-09T19:30:19.064Z,1260
2018-10-09T19:30:49.113Z,1260
2018-10-09T19:31:19.223Z,1260
2018-10-09T19:31:49.004Z,1260
2018-10-09T19:32:19.709Z,1260
2018-10-09T19:32:49.100Z,1260
2018-10-09T19:33:19.351Z,1260
2018-10-09T19:33:50.300Z,1260
2018-10-09T19:34:20.430Z,1260
2018-10-09T19:34:49.743Z,1260
2018-10-09T19:35:19.005Z,1260
2018-10-09T19:35:49.107Z,1260
2018-10-09T19:36:19.093Z,1260
2018-10-09T19:36:49.174Z,1260
2018-10-09T19:37:18.970Z,1260
2018-10-09T19:37:50.333Z,1260
2018-10-09T19:38:19.108Z,1260
2018-10-09T19:38:49.157Z,1260
2018-10-09T19:39:18.932Z,1260
2018-10-09T19:39:50.263Z,1260
2018-10-09T19:40:23.365Z,1260
2018-10-09T19:40:48.980Z,1260
2018-10-09T19:41:18.976Z,1260
2018-10-09T19:41:49.309Z,1260
2018-10-09T19:42:19.023Z,1260
2018-10-09T19:42:48.992Z,1260
2018-10-09T19:43:22.260Z,1260
2018-10-09T19:43:49.008Z,1260
2018-10-09T19:44:21.583Z,1260
2018-10-09T19:44:49.389Z,1260
2018-10-09T19:45:19.458Z,1260
2018-10-09T19:45:49.489Z,1260
2018-10-09T19:46:20.871Z,1260
2018-10-09T19:46:49.772Z,1260
2018-10-09T19:47:20.079Z,1260
2018-10-09T19:47:49.238Z,1260
2018-10-09T19:48:19.704Z,1260
2018-10-09T19:48:50.057Z,1260
2018-10-09T19:49:22.145Z,1260
2018-10-09T19:49:49.268Z,1260
2018-10-09T19:50:19.258Z,1260
2018-10-09T19:50:51.345Z,1260
2018-10-09T19:51:19.511Z,1260
2018-10-09T19:51:48.974Z,1260
2018-10-09T19:52:26.405Z,1260
2018-10-09T19:52:49.208Z,1260
2018-10-09T19:53:20.288Z,1260
2018-10-09T19:53:48.921Z,1260
2018-10-09T19:54:18.921Z,1260
2018-10-09T19:54:49.979Z,1260
2018-10-09T19:55:21.276Z,1260
2018-10-09T19:55:49.342Z,1260
2018-10-09T19:56:19.470Z,1260
2018-10-09T19:56:49.213Z,1260
2018-10-09T19:57:19.127Z,1260
2018-10-09T19:57:48.991Z,1260
2018-10-09T19:58:21.945Z,1260
2018-10-09T19:58:48.938Z,1260
2018-10-09T19:59:19.017Z,1260
2018-10-09T19:59:48.993Z,1260
2018-10-09T20:00:19.055Z,1260
2018-10-09T20:00:49.049Z,1260
2018-10-09T20:01:19.658Z,1260
2018-10-09T20:01:49.120Z,1260
2018-10-09T20:02:19.227Z,1260
2018-10-09T20:02:48.996Z,1260
2018-10-09T20:03:19.323Z,1260
2018-10-09T20:03:48.923Z,1260
2018-10-09T20:04:19.118Z,1260
2018-10-09T20:04:49.186Z,1260
2018-10-09T20:05:18.946Z,1260
2018-10-09T20:05:48.944Z,1260
2018-10-09T20:06:18.945Z,1260
2018-10-09T20:06:49.108Z,1260
2018-10-09T20:07:18.920Z,1260
2018-10-09T20:07:49.189Z,1260
2018-10-09T20:08:18.956Z,1260
2018-10-09T20:08:48.945Z,1260
2018-10-09T20:09:20.398Z,1260
2018-10-09T20:09:49.197Z,1260
2018-10-09T20:10:19.012Z,1260
2018-10-09T20:10:49.043Z,1260
2018-10-09T20:11:19.150Z,1260
2018-10-09T20:11:48.917Z,1260
2018-10-09T20:12:19.034Z,1260
2018-10-09T20:12:49.122Z,1260
2018-10-09T20:13:18.999Z,1260
2018-10-09T20:13:48.991Z,1260